Time;durP1;ratioP1;P1;durP2;ratioP2;P2;SDS_P1;SDS_P2;PMS_P1;PMS_P2;Temp;Humidity;BMP_temperature;BMP_pressure;BME280_temperature;BME280_humidity;BME280_pressure;Samples;Min_cycle;Max_cycle;Signal;HPM_P1;HPM_P2
2022/04/30 00:02:07;;;;;;;;;;;;;;;;;;;;;
2022/04/30 00:04:46;;;;;;;7.60;6.45;;;;;;;;;;5041570;28;20115;-58
2022/04/30 00:07:40;;;;;;;7.28;6.30;;;;;;;;;;5110681;28;20028;-58
2022/04/30 00:10:22;;;;;;;7.60;6.35;;;;;;;;;;5096192;28;20042;-58
2022/04/30 00:13:16;;;;;;;10.65;5.50;;;;;;;;;;5110541;28;20030;-58
2022/04/30 00:22:26;;;;;;;8.20;7.40;;;;;;;;;;5072285;28;20106;-58
2022/04/30 00:30:55;;;;;;;7.63;6.90;;;;;;;;;;5071999;28;20477;-58
2022/04/30 00:33:51;;;;;;;;;;;;;;;;;;;;;
2022/04/30 00:37:07;;;;;;;;;;;;;;;;;;;;;
2022/04/30 00:39:35;;;;;;;9.05;7.53;;;;;;;;;;5103346;28;20093;-58
2022/04/30 00:42:33;;;;;;;7.45;6.00;;;;;;;;;;5075961;28;20043;-58
2022/04/30 00:48:13;;;;;;;9.40;6.57;;;;;;;;;;5130044;28;20042;-58
2022/04/30 00:51:04;;;;;;;9.40;7.30;;;;;;;;;;5130054;28;20045;-58
2022/04/30 00:53:44;;;;;;;7.82;7.03;;;;;;;;;;5130397;28;20020;-58
2022/04/30 00:56:25;;;;;;;7.47;6.75;;;;;;;;;;5125725;28;20039;-58
2022/04/30 00:59:17;;;;;;;;;;;;;;;;;;;;;
2022/04/30 01:02:22;;;;;;;16.40;6.85;;;;;;;;;;5121069;28;20055;-59
2022/04/30 01:04:58;;;;;;;8.75;6.97;;;;;;;;;;5099363;28;20065;-58
2022/04/30 01:07:52;;;;;;;8.35;7.22;;;;;;;;;;5129912;28;20043;-58
2022/04/30 01:13:30;;;;;;;;;;;;;;;;;;;;;
2022/04/30 01:19:55;;;;;;;;;;;;;;;;;;;;;
2022/04/30 01:22:47;;;;;;;9.95;8.95;;;;;;;;;;5129528;28;20062;-57
2022/04/30 01:28:53;;;;;;;24.30;12.45;;;;;;;;;;5046618;28;20044;-57
2022/04/30 01:37:22;;;;;;;15.18;12.52;;;;;;;;;;5047478;28;20093;-58
2022/04/30 01:40:24;;;;;;;16.83;11.82;;;;;;;;;;5036876;28;20025;-56
2022/04/30 01:43:04;;;;;;;18.08;13.60;;;;;;;;;;5065500;28;20033;-58
2022/04/30 01:45:39;;;;;;;17.20;13.73;;;;;;;;;;5045644;28;20194;-58
2022/04/30 01:48:34;;;;;;;12.95;11.65;;;;;;;;;;5030549;28;20054;-58
2022/04/30 01:51:15;;;;;;;22.73;13.57;;;;;;;;;;5047208;28;20030;-58
2022/04/30 01:54:13;;;;;;;23.08;14.32;;;;;;;;;;5047095;28;20025;-57
2022/04/30 02:02:51;;;;;;;14.38;12.48;;;;;;;;;;4990888;28;20078;-58
2022/04/30 02:05:37;;;;;;;21.77;15.88;;;;;;;;;;5024710;28;20110;-55
2022/04/30 02:08:38;;;;;;;20.08;14.80;;;;;;;;;;5034005;28;20037;-58
2022/04/30 02:11:25;;;;;;;17.95;13.80;;;;;;;;;;5051144;28;20024;-58
2022/04/30 02:14:12;;;;;;;21.13;14.95;;;;;;;;;;5051147;28;20058;-58
2022/04/30 02:17:12;;;;;;;15.45;13.57;;;;;;;;;;5051211;28;20081;-58
2022/04/30 02:26:07;;;;;;;;;;;;;;;;;;;;;
2022/04/30 02:28:49;;;;;;;18.40;14.70;;;;;;;;;;5096919;28;20071;-58
2022/04/30 02:31:37;;;;;;;18.10;15.52;;;;;;;;;;5113030;28;20064;-58
2022/04/30 02:34:35;;;;;;;20.25;13.82;;;;;;;;;;5112636;28;20040;-56
2022/04/30 02:37:36;;;;;;;18.75;15.27;;;;;;;;;;5109177;28;20039;-58
2022/04/30 02:40:10;;;;;;;;;;;;;;;;;;5081466;28;20032;-58
2022/04/30 02:42:56;;;;;;;21.65;14.55;;;;;;;;;;5112574;28;19904;-57
2022/04/30 02:45:50;;;;;;;19.38;14.32;;;;;;;;;;5113444;28;20085;-57
2022/04/30 02:48:35;;;;;;;15.90;13.82;;;;;;;;;;5111029;28;20039;-58
2022/04/30 02:56:43;;;;;;;21.02;15.90;;;;;;;;;;5069956;28;20025;-58
2022/04/30 03:05:34;;;;;;;20.35;14.77;;;;;;;;;;5132916;28;20038;-58
2022/04/30 03:08:19;;;;;;;17.83;13.32;;;;;;;;;;5129558;28;20069;-57
2022/04/30 03:10:57;;;;;;;19.35;14.45;;;;;;;;;;5114693;28;20031;-58
2022/04/30 03:13:36;;;;;;;18.35;14.05;;;;;;;;;;5131303;28;20027;-58
2022/04/30 03:28:23;;;;;;;24.60;16.10;;;;;;;;;;5132037;28;20035;-58
2022/04/30 03:31:16;;;;;;;21.38;16.65;;;;;;;;;;5128790;28;20582;-58
2022/04/30 03:37:24;;;;;;;20.23;13.95;;;;;;;;;;5108450;28;20035;-58
2022/04/30 03:40:00;;;;;;;20.77;14.75;;;;;;;;;;5117494;28;20038;-57
2022/04/30 03:46:12;;;;;;;;;;;;;;;;;;;;;
2022/04/30 03:55:18;;;;;;;22.80;18.23;;;;;;;;;;4989785;28;20042;-57
2022/04/30 03:58:13;;;;;;;23.60;18.38;;;;;;;;;;5022678;28;20033;-57
2022/04/30 04:00:54;;;;;;;25.55;19.08;;;;;;;;;;5087578;28;20097;-58
2022/04/30 04:03:31;;;;;;;22.27;17.17;;;;;;;;;;5078837;28;20028;-58
2022/04/30 04:06:13;;;;;;;23.88;17.92;;;;;;;;;;5097240;28;20032;-58
2022/04/30 04:11:46;;;;;;;29.73;19.25;;;;;;;;;;5014148;28;20041;-57
2022/04/30 04:17:37;;;;;;;26.08;19.63;;;;;;;;;;5014515;28;20119;-58
2022/04/30 04:20:25;;;;;;;30.52;19.58;;;;;;;;;;4936056;29;20040;-57
2022/04/30 04:23:36;;;;;;;;;;;;;;;;;;;;;
2022/04/30 04:32:12;;;;;;;22.98;19.17;;;;;;;;;;5007865;28;20035;-58
2022/04/30 04:34:56;;;;;;;27.25;20.73;;;;;;;;;;5010964;28;20419;-58
2022/04/30 04:37:29;;;;;;;21.55;19.17;;;;;;;;;;5011790;28;20087;-58
2022/04/30 04:40:20;;;;;;;22.10;17.58;;;;;;;;;;5028423;28;20105;-57
2022/04/30 04:43:12;;;;;;;28.10;21.27;;;;;;;;;;5010943;28;20097;-57
2022/04/30 04:46:06;;;;;;;;;;;;;;;;;;;;;
2022/04/30 04:48:32;;;;;;;23.52;19.52;;;;;;;;;;5081471;28;20063;-57
2022/04/30 04:51:12;;;;;;;26.58;19.95;;;;;;;;;;5130455;28;20054;-57
2022/04/30 04:57:00;;;;;;;24.05;20.08;;;;;;;;;;5130629;28;20106;-58
2022/04/30 04:59:53;;;;;;;26.45;19.15;;;;;;;;;;5130256;28;20020;-57
2022/04/30 05:02:51;;;;;;;27.30;19.50;;;;;;;;;;5129904;28;20054;-57
2022/04/30 05:08:46;;;;;;;27.80;20.00;;;;;;;;;;5067190;28;20044;-56
2022/04/30 05:17:36;;;;;;;26.95;19.48;;;;;;;;;;5066978;28;20062;-58
2022/04/30 05:20:32;;;;;;;;;;;;;;;;;;;;;
2022/04/30 05:26:06;;;;;;;23.60;20.92;;;;;;;;;;5127232;28;20047;-57
2022/04/30 05:29:01;;;;;;;29.10;20.15;;;;;;;;;;5107112;28;20032;-58
2022/04/30 05:31:56;;;;;;;24.40;19.83;;;;;;;;;;5124032;28;20024;-58
2022/04/30 05:34:53;;;;;;;;;;;;;;;;;;;;;
2022/04/30 05:37:28;;;;;;;25.83;18.67;;;;;;;;;;5112083;28;20118;-56
2022/04/30 05:40:12;;;;;;;27.52;21.92;;;;;;;;;;5072815;28;20032;-58
2022/04/30 05:43:01;;;;;;;25.40;20.25;;;;;;;;;;5072680;28;20112;-58
2022/04/30 05:45:29;;;;;;;25.48;20.63;;;;;;;;;;5071902;28;20513;-57
2022/04/30 05:51:29;;;;;;;25.75;20.50;;;;;;;;;;5059560;28;20060;-58
2022/04/30 05:57:39;;;;;;;27.23;21.77;;;;;;;;;;5012891;28;20554;-57
2022/04/30 06:00:08;;;;;;;25.05;19.92;;;;;;;;;;5001309;28;20041;-58
2022/04/30 06:05:54;;;;;;;25.17;19.77;;;;;;;;;;5012555;28;20042;-57
2022/04/30 06:12:23;;;;;;;25.85;18.48;;;;;;;;;;5034809;28;20029;-58
2022/04/30 06:14:55;;;;;;;26.67;19.30;;;;;;;;;;5089285;28;20477;-58
2022/04/30 06:17:30;;;;;;;23.65;20.35;;;;;;;;;;5112896;28;20499;-58
2022/04/30 06:20:12;;;;;;;27.85;20.58;;;;;;;;;;5115236;28;20107;-58
2022/04/30 06:29:00;;;;;;;27.23;19.90;;;;;;;;;;5087614;28;20129;-58
2022/04/30 06:31:59;;;;;;;25.52;19.10;;;;;;;;;;5114615;28;20028;-58
2022/04/30 06:37:29;;;;;;;22.55;18.48;;;;;;;;;;5084216;28;20024;-58
2022/04/30 06:46:31;;;;;;;22.80;18.73;;;;;;;;;;5113618;28;20050;-56
2022/04/30 06:49:04;;;;;;;26.48;18.00;;;;;;;;;;5116115;28;20180;-56
2022/04/30 06:52:00;;;;;;;26.98;19.25;;;;;;;;;;5118008;28;20485;-56
2022/04/30 06:58:01;;;;;;;23.95;19.45;;;;;;;;;;5117662;28;20065;-57
2022/04/30 07:03:24;;;;;;;28.75;20.73;;;;;;;;;;5117646;28;20043;-57
2022/04/30 07:06:18;;;;;;;22.38;19.05;;;;;;;;;;5112046;28;20469;-55
2022/04/30 07:08:53;;;;;;;;;;;;;;;;;;;;;
2022/04/30 07:11:40;;;;;;;21.05;17.50;;;;;;;;;;5105782;28;20032;-57
2022/04/30 07:14:27;;;;;;;23.63;18.80;;;;;;;;;;5118137;28;20476;-56
2022/04/30 07:20:51;;;;;;;23.02;19.30;;;;;;;;;;5115486;28;20355;-57
2022/04/30 07:23:36;;;;;;;20.00;17.35;;;;;;;;;;5117121;28;20046;-56
2022/04/30 07:26:22;;;;;;;21.42;19.00;;;;;;;;;;5099127;28;20069;-56
2022/04/30 07:29:40;;;;;;;23.92;18.27;;;;;;;;;;5115960;28;20492;-58
2022/04/30 07:38:37;;;;;;;19.63;17.52;;;;;;;;;;5116796;28;20097;-58
2022/04/30 07:41:10;;;;;;;24.00;17.73;;;;;;;;;;5067855;28;20114;-57
2022/04/30 07:43:59;;;;;;;;;;;;;;;;;;;;;
2022/04/30 07:46:38;;;;;;;22.88;18.40;;;;;;;;;;5116868;28;20118;-58
2022/04/30 07:52:06;;;;;;;23.05;17.73;;;;;;;;;;5117029;28;20082;-56
2022/04/30 07:54:54;;;;;;;21.83;18.15;;;;;;;;;;5108369;28;20127;-57
2022/04/30 07:57:37;;;;;;;20.80;15.85;;;;;;;;;;5116536;28;20415;-56
2022/04/30 08:00:21;;;;;;;22.13;18.08;;;;;;;;;;5117354;28;20055;-58
2022/04/30 08:03:15;;;;;;;23.17;17.10;;;;;;;;;;5098366;28;20051;-58
2022/04/30 08:06:03;;;;;;;;;;;;;;;;;;;;;
2022/04/30 08:08:46;;;;;;;20.42;17.20;;;;;;;;;;5113682;28;20033;-57
2022/04/30 08:11:31;;;;;;;20.17;17.10;;;;;;;;;;5116806;28;20077;-56
2022/04/30 08:14:35;;;;;;;;;;;;;;;;;;;;;
2022/04/30 08:17:49;;;;;;;21.02;18.13;;;;;;;;;;5117508;28;20106;-55
2022/04/30 08:23:27;;;;;;;19.30;16.73;;;;;;;;;;5089770;28;20463;-59
2022/04/30 08:26:13;;;;;;;19.35;17.33;;;;;;;;;;5117228;28;20031;-56
2022/04/30 08:28:50;;;;;;;22.85;15.90;;;;;;;;;;5097705;28;20485;-54
2022/04/30 08:31:16;;;;;;;17.80;16.00;;;;;;;;;;5116550;28;20031;-57
2022/04/30 08:33:45;;;;;;;16.65;15.07;;;;;;;;;;5116209;28;20020;-56
2022/04/30 08:36:27;;;;;;;19.23;15.98;;;;;;;;;;5117298;28;20035;-54
2022/04/30 08:39:05;;;;;;;19.58;16.20;;;;;;;;;;5120693;28;20062;-57
2022/04/30 08:41:52;;;;;;;;;;;;;;;;;;;;;
2022/04/30 08:44:37;;;;;;;16.15;14.50;;;;;;;;;;5116653;28;20031;-56
2022/04/30 08:47:25;;;;;;;;;;;;;;;;;;;;;
2022/04/30 08:50:03;;;;;;;19.58;15.38;;;;;;;;;;5108486;28;20048;-57
2022/04/30 08:52:44;;;;;;;14.88;13.35;;;;;;;;;;5116021;28;20035;-57
2022/04/30 08:55:28;;;;;;;17.88;14.82;;;;;;;;;;5115775;28;20049;-58
2022/04/30 08:58:15;;;;;;;17.13;14.68;;;;;;;;;;5115794;28;20028;-57
2022/04/30 09:01:10;;;;;;;20.20;15.20;;;;;;;;;;5115149;28;20020;-57
2022/04/30 09:03:55;;;;;;;17.75;12.98;;;;;;;;;;5115665;28;20104;-57
2022/04/30 09:07:05;;;;;;;14.32;12.45;;;;;;;;;;5053568;28;20052;-58
2022/04/30 09:09:52;;;;;;;15.07;13.18;;;;;;;;;;5090182;28;20382;-57
2022/04/30 09:12:31;;;;;;;;;;;;;;;;;;;;;
2022/04/30 09:15:16;;;;;;;14.70;12.00;;;;;;;;;;5065503;28;20044;-57
2022/04/30 09:18:01;;;;;;;16.60;12.52;;;;;;;;;;5076584;28;20030;-57
2022/04/30 09:21:00;;;;;;;14.40;11.98;;;;;;;;;;5061514;28;20469;-57
2022/04/30 09:29:28;;;;;;;15.93;13.23;;;;;;;;;;5056710;28;20041;-57
2022/04/30 09:41:00;;;;;;;14.90;12.65;;;;;;;;;;5093775;28;20028;-57
2022/04/30 09:44:17;;;;;;;;;;;;;;;;;;;;;
2022/04/30 09:56:20;;;;;;;12.80;10.95;;;;;;;;;;5090580;28;20154;-55
2022/04/30 10:01:58;;;;;;;11.38;9.95;;;;;;;;;;5082981;28;20035;-57
2022/04/30 10:08:06;;;;;;;10.63;8.50;;;;;;;;;;5094436;28;20074;-56
2022/04/30 10:14:28;;;;;;;8.02;7.25;;;;;;;;;;5011693;28;20462;-57
2022/04/30 10:23:14;;;;;;;10.00;9.05;;;;;;;;;;5027629;28;20099;-55
2022/04/30 10:26:47;;;;;;;9.70;8.70;;;;;;;;;;5026970;28;20049;-57
2022/04/30 10:32:24;;;;;;;10.05;9.02;;;;;;;;;;4985901;28;20596;-58
2022/04/30 10:38:42;;;;;;;8.93;8.00;;;;;;;;;;4930973;29;20035;-56
2022/04/30 10:41:28;;;;;;;11.88;9.88;;;;;;;;;;5000375;28;20057;-57
2022/04/30 10:50:47;;;;;;;;;;;;;;;;;;;;;
2022/04/30 10:53:42;;;;;;;11.35;9.68;;;;;;;;;;5011392;28;20073;-58
2022/04/30 10:56:56;;;;;;;13.15;10.32;;;;;;;;;;5029409;28;20038;-56
2022/04/30 11:00:01;;;;;;;;;;;;;;;;;;;;;
2022/04/30 11:03:12;;;;;;;9.90;8.90;;;;;;;;;;5038116;28;20072;-58
2022/04/30 11:06:19;;;;;;;8.93;7.88;;;;;;;;;;4993148;28;20361;-58
2022/04/30 11:12:16;;;;;;;9.20;7.50;;;;;;;;;;4913184;29;20033;-57
2022/04/30 11:15:00;;;;;;;9.50;7.43;;;;;;;;;;5024580;28;20515;-56
2022/04/30 11:17:41;;;;;;;8.68;7.80;;;;;;;;;;5029144;28;20041;-58
2022/04/30 11:23:38;;;;;;;9.18;6.03;;;;;;;;;;5021247;28;20033;-58
2022/04/30 11:26:33;;;;;;;;;;;;;;;;;;;;;
2022/04/30 11:29:17;;;;;;;5.28;4.65;;;;;;;;;;4948311;28;20062;-57
2022/04/30 11:31:55;;;;;;;5.15;4.45;;;;;;;;;;5029496;28;20460;-57
2022/04/30 11:40:26;;;;;;;5.93;4.45;;;;;;;;;;5032815;28;20026;-58
2022/04/30 11:43:15;;;;;;;6.20;5.15;;;;;;;;;;5090132;28;20028;-57
2022/04/30 11:49:02;;;;;;;;;;;;;;;;;;4986192;28;20120;-57
2022/04/30 11:51:34;;;;;;;5.63;4.85;;;;;;;;;;5104439;28;19908;-57
2022/04/30 12:00:52;;;;;;;5.15;4.63;;;;;;;;;;5109127;28;20050;-57
2022/04/30 12:06:33;;;;;;;6.72;5.45;;;;;;;;;;5108879;28;20043;-57
2022/04/30 12:15:47;;;;;;;6.07;4.43;;;;;;;;;;5036303;28;20144;-57
2022/04/30 12:24:49;;;;;;;6.35;5.43;;;;;;;;;;5047303;28;20135;-58
2022/04/30 12:27:37;;;;;;;6.22;5.32;;;;;;;;;;5092647;28;20114;-57
2022/04/30 12:30:17;;;;;;;6.47;5.28;;;;;;;;;;5074199;28;20433;-57
2022/04/30 12:33:24;;;;;;;;;;;;;;;;;;;;;
2022/04/30 12:36:09;;;;;;;5.40;4.90;;;;;;;;;;5070922;28;20064;-57
2022/04/30 12:38:59;;;;;;;7.13;5.38;;;;;;;;;;5087120;28;20044;-57
2022/04/30 12:41:36;;;;;;;6.50;5.60;;;;;;;;;;5069188;28;20037;-58
2022/04/30 12:44:37;;;;;;;5.88;5.28;;;;;;;;;;5068716;28;20039;-58
2022/04/30 12:47:43;;;;;;;7.22;5.45;;;;;;;;;;5071786;28;20036;-58
2022/04/30 12:56:12;;;;;;;;;;;;;;;;;;5069880;28;20037;-58
2022/04/30 12:59:03;;;;;;;4.85;4.10;;;;;;;;;;5072196;28;19904;-58
2022/04/30 13:02:10;;;;;;;4.70;4.25;;;;;;;;;;5072436;28;20029;-58
2022/04/30 13:05:03;;;;;;;5.22;4.25;;;;;;;;;;5091459;28;20028;-58
2022/04/30 13:14:02;;;;;;;5.28;4.47;;;;;;;;;;5094785;28;20520;-57
2022/04/30 13:17:14;;;;;;;;;;;;;;;;;;;;;
2022/04/30 13:20:31;;;;;;;6.53;3.10;;;;;;;;;;5094988;28;20028;-58
2022/04/30 13:26:22;;;;;;;6.20;4.97;;;;;;;;;;5095194;28;20462;-58
2022/04/30 13:29:14;;;;;;;4.72;4.22;;;;;;;;;;5095230;28;20043;-58
2022/04/30 13:31:53;;;;;;;6.55;5.53;;;;;;;;;;5069220;28;20077;-57
2022/04/30 13:34:25;;;;;;;6.75;5.90;;;;;;;;;;5095048;28;20039;-55
2022/04/30 13:40:52;;;;;;;9.25;7.95;;;;;;;;;;5020792;28;20111;-58
2022/04/30 13:43:29;;;;;;;7.40;6.40;;;;;;;;;;5076142;28;20028;-58
2022/04/30 13:52:34;;;;;;;10.85;9.27;;;;;;;;;;5094293;28;20457;-58
2022/04/30 13:55:15;;;;;;;10.10;9.10;;;;;;;;;;5058533;28;20533;-57
2022/04/30 13:57:42;;;;;;;11.77;9.07;;;;;;;;;;5097074;28;20032;-59
2022/04/30 14:04:06;;;;;;;10.20;9.10;;;;;;;;;;5087262;28;20052;-56
2022/04/30 14:06:26;;;;;;;11.77;9.45;;;;;;;;;;5101147;28;20032;-57
2022/04/30 14:09:21;;;;;;;10.93;9.10;;;;;;;;;;5112946;28;20023;-56
2022/04/30 14:15:15;;;;;;;11.18;10.00;;;;;;;;;;5050377;28;20030;-58
2022/04/30 14:20:46;;;;;;;10.50;9.50;;;;;;;;;;5051562;28;20075;-58
2022/04/30 14:27:03;;;;;;;;;;;;;;;;;;;;;
2022/04/30 14:32:53;;;;;;;12.57;9.30;;;;;;;;;;5051671;28;20029;-58
2022/04/30 14:35:19;;;;;;;12.20;8.98;;;;;;;;;;5051448;28;20040;-57
2022/04/30 14:41:09;;;;;;;11.52;8.52;;;;;;;;;;5096025;28;20040;-57
2022/04/30 14:46:57;;;;;;;9.40;7.63;;;;;;;;;;5031576;28;20558;-59
2022/04/30 14:49:42;;;;;;;9.13;7.55;;;;;;;;;;5031103;28;20057;-57
2022/04/30 14:52:11;;;;;;;9.25;7.30;;;;;;;;;;4994596;28;20060;-57
2022/04/30 14:57:49;;;;;;;6.97;6.00;;;;;;;;;;5025682;28;20063;-56
2022/04/30 15:00:18;;;;;;;7.25;6.30;;;;;;;;;;5094631;28;20100;-58
2022/04/30 15:03:05;;;;;;;6.20;5.25;;;;;;;;;;5094417;28;20023;-57
2022/04/30 15:09:04;;;;;;;10.73;6.40;;;;;;;;;;5046176;28;20035;-57
2022/04/30 15:11:50;;;;;;;8.00;6.05;;;;;;;;;;5077703;28;20020;-55
2022/04/30 15:20:09;;;;;;;7.03;6.32;;;;;;;;;;4994989;28;20089;-57
2022/04/30 15:22:50;;;;;;;6.50;5.82;;;;;;;;;;4963283;28;20464;-58
2022/04/30 15:25:42;;;;;;;8.18;6.63;;;;;;;;;;4995054;28;20034;-57
2022/04/30 15:28:14;;;;;;;7.47;5.75;;;;;;;;;;4995658;28;20547;-55
2022/04/30 15:31:35;;;;;;;6.78;6.07;;;;;;;;;;4978900;28;20507;-57
2022/04/30 15:34:15;;;;;;;6.80;5.90;;;;;;;;;;5020162;28;20032;-57
2022/04/30 15:40:06;;;;;;;9.07;7.78;;;;;;;;;;5067888;28;20040;-57
2022/04/30 15:42:41;;;;;;;6.95;6.15;;;;;;;;;;5076828;28;20029;-57
2022/04/30 15:45:45;;;;;;;;;;;;;;;;;;;;;
2022/04/30 15:51:41;;;;;;;7.80;7.07;;;;;;;;;;5070365;28;20129;-57
2022/04/30 15:54:23;;;;;;;;;;;;;;;;;;;;;
2022/04/30 15:57:14;;;;;;;10.45;7.53;;;;;;;;;;5090032;28;20533;-56
2022/04/30 15:59:50;;;;;;;;;;;;;;;;;;5090779;28;20050;-58
2022/04/30 16:02:35;;;;;;;7.63;6.68;;;;;;;;;;5078870;28;19904;-58
2022/04/30 16:05:14;;;;;;;7.90;7.07;;;;;;;;;;5101755;28;20067;-57
2022/04/30 16:08:14;;;;;;;9.18;7.90;;;;;;;;;;5110221;28;20034;-58
2022/04/30 16:10:42;;;;;;;;;;;;;;;;;;5111079;28;20016;-57
2022/04/30 16:16:17;;;;;;;8.30;6.85;;;;;;;;;;5110222;28;20040;-58
2022/04/30 16:25:12;;;;;;;9.65;8.55;;;;;;;;;;5046868;28;20041;-57
2022/04/30 16:30:52;;;;;;;;;;;;;;;;;;5074458;28;20050;-57
2022/04/30 16:33:27;;;;;;;10.32;8.07;;;;;;;;;;5109778;28;19908;-57
2022/04/30 16:36:00;;;;;;;11.10;7.65;;;;;;;;;;5109361;28;20087;-57
2022/04/30 16:39:04;;;;;;;9.55;8.65;;;;;;;;;;5091614;28;20062;-57
2022/04/30 16:42:00;;;;;;;9.57;8.10;;;;;;;;;;5076963;28;20081;-57
2022/04/30 16:45:03;;;;;;;11.82;8.18;;;;;;;;;;5089003;28;20069;-57
2022/04/30 16:47:47;;;;;;;11.23;9.63;;;;;;;;;;5091863;28;20028;-58
2022/04/30 16:53:45;;;;;;;;;;;;;;;;;;;;;
2022/04/30 16:59:36;;;;;;;11.57;9.10;;;;;;;;;;5108414;28;20452;-57
2022/04/30 17:02:21;;;;;;;10.68;9.57;;;;;;;;;;5108516;28;20103;-57
2022/04/30 17:04:55;;;;;;;10.60;9.60;;;;;;;;;;5103000;28;20389;-57
2022/04/30 17:07:39;;;;;;;11.43;10.02;;;;;;;;;;5085653;28;20039;-57
2022/04/30 17:10:25;;;;;;;11.25;10.02;;;;;;;;;;5094056;28;20024;-58
2022/04/30 17:13:33;;;;;;;;;;;;;;;;;;;;;
2022/04/30 17:16:35;;;;;;;11.50;9.95;;;;;;;;;;5079089;28;20619;-59
2022/04/30 17:19:23;;;;;;;12.05;9.77;;;;;;;;;;5033715;28;20044;-59
2022/04/30 17:22:16;;;;;;;14.15;10.45;;;;;;;;;;5076038;28;20485;-58
2022/04/30 17:25:23;;;;;;;12.32;11.05;;;;;;;;;;5095998;28;20322;-58
2022/04/30 17:27:53;;;;;;;12.43;9.80;;;;;;;;;;5088961;28;20063;-59
2022/04/30 17:30:22;;;;;;;13.38;10.60;;;;;;;;;;5094228;28;20084;-57
2022/04/30 17:39:18;;;;;;;11.48;9.43;;;;;;;;;;5091251;28;20077;-56
2022/04/30 17:42:15;;;;;;;11.07;9.38;;;;;;;;;;5094072;28;20035;-58
2022/04/30 17:48:13;;;;;;;13.45;10.88;;;;;;;;;;5094208;28;20077;-58
2022/04/30 17:51:11;;;;;;;10.38;9.15;;;;;;;;;;5090878;28;20374;-59
2022/04/30 17:53:55;;;;;;;10.85;9.55;;;;;;;;;;5093170;28;20389;-58
2022/04/30 17:59:41;;;;;;;12.95;11.57;;;;;;;;;;5081776;28;20427;-57
2022/04/30 18:02:45;;;;;;;13.02;11.65;;;;;;;;;;5093577;28;20032;-58
2022/04/30 18:05:24;;;;;;;13.98;11.43;;;;;;;;;;5051456;28;20195;-56
2022/04/30 18:07:52;;;;;;;13.68;11.18;;;;;;;;;;5075694;28;20036;-58
2022/04/30 18:10:51;;;;;;;;;;;;;;;;;;;;;
2022/04/30 18:13:42;;;;;;;13.35;12.00;;;;;;;;;;5078349;28;20054;-58
2022/04/30 18:19:17;;;;;;;15.80;12.15;;;;;;;;;;5094386;28;20035;-58
2022/04/30 18:21:50;;;;;;;15.98;13.15;;;;;;;;;;5072427;28;20443;-56
2022/04/30 18:30:59;;;;;;;17.17;13.73;;;;;;;;;;5070501;28;20043;-58
2022/04/30 18:33:29;;;;;;;;;;;;;;;;;;5094747;28;20032;-58
2022/04/30 18:36:15;;;;;;;19.37;12.40;;;;;;;;;;5088365;28;19912;-58
2022/04/30 18:38:51;;;;;;;15.57;12.15;;;;;;;;;;5072159;28;20038;-58
2022/04/30 18:41:41;;;;;;;17.23;13.10;;;;;;;;;;5091873;28;20115;-58
2022/04/30 18:47:38;;;;;;;14.52;13.02;;;;;;;;;;5074306;28;20492;-58
2022/04/30 18:50:27;;;;;;;15.23;13.32;;;;;;;;;;5077057;28;20077;-58
2022/04/30 18:53:36;;;;;;;;;;;;;;;;;;;;;
2022/04/30 19:02:18;;;;;;;16.33;13.98;;;;;;;;;;5079322;28;20067;-58
2022/04/30 19:04:57;;;;;;;22.17;13.85;;;;;;;;;;5028660;28;20518;-57
2022/04/30 19:10:49;;;;;;;21.75;16.27;;;;;;;;;;5034716;28;20029;-58
2022/04/30 19:13:38;;;;;;;;;;;;;;;;;;;;;
2022/04/30 19:16:20;;;;;;;16.67;13.40;;;;;;;;;;5097991;28;20062;-58
2022/04/30 19:19:05;;;;;;;17.45;14.18;;;;;;;;;;5097919;28;20029;-57
2022/04/30 19:21:52;;;;;;;16.27;14.57;;;;;;;;;;5079035;28;20036;-57
2022/04/30 19:30:19;;;;;;;;;;;;;;;;;;;;;
2022/04/30 19:33:24;;;;;;;15.93;14.27;;;;;;;;;;5097178;28;20032;-58
2022/04/30 19:39:12;;;;;;;15.57;12.93;;;;;;;;;;5040444;28;20025;-60
2022/04/30 19:45:01;;;;;;;16.45;12.93;;;;;;;;;;5080297;28;20051;-58
2022/04/30 19:50:50;;;;;;;15.43;13.55;;;;;;;;;;5051951;28;20052;-58
2022/04/30 19:53:59;;;;;;;16.85;13.20;;;;;;;;;;5034646;28;20112;-58
2022/04/30 19:56:36;;;;;;;18.40;14.10;;;;;;;;;;5033117;28;20411;-58
2022/04/30 20:02:36;;;;;;;15.30;13.73;;;;;;;;;;4968836;28;20034;-57
2022/04/30 20:05:06;;;;;;;15.13;12.55;;;;;;;;;;4998586;28;20111;-58
2022/04/30 20:17:04;;;;;;;19.33;14.77;;;;;;;;;;4904051;29;20079;-58
2022/04/30 20:19:37;;;;;;;19.25;15.65;;;;;;;;;;5004681;28;20096;-58
2022/04/30 20:22:21;;;;;;;19.17;15.18;;;;;;;;;;5075164;28;20055;-57
2022/04/30 20:24:48;;;;;;;25.05;15.68;;;;;;;;;;5076034;28;20028;-58
2022/04/30 20:27:56;;;;;;;;;;;;;;;;;;;;;
2022/04/30 20:37:03;;;;;;;21.25;15.55;;;;;;;;;;5029659;28;20060;-58
2022/04/30 20:39:48;;;;;;;21.20;16.55;;;;;;;;;;5032852;28;20096;-58
2022/04/30 20:42:44;;;;;;;17.02;14.18;;;;;;;;;;5071381;28;20028;-59
2022/04/30 20:45:13;;;;;;;17.27;15.02;;;;;;;;;;5073990;28;20040;-59
2022/04/30 20:50:46;;;;;;;18.63;15.25;;;;;;;;;;5064436;28;20021;-57
2022/04/30 20:53:55;;;;;;;20.10;16.58;;;;;;;;;;5075110;28;20135;-56
2022/04/30 20:56:49;;;;;;;;;;;;;;;;;;;;;
2022/04/30 20:59:53;;;;;;;16.58;14.70;;;;;;;;;;5074933;28;20035;-56
2022/04/30 21:02:35;;;;;;;19.55;14.93;;;;;;;;;;5054579;28;20067;-56
2022/04/30 21:11:54;;;;;;;16.95;15.13;;;;;;;;;;5018912;28;20098;-59
2022/04/30 21:14:32;;;;;;;19.45;16.15;;;;;;;;;;5080703;28;20054;-58
2022/04/30 21:17:23;;;;;;;18.30;15.80;;;;;;;;;;5072152;28;20115;-56
2022/04/30 21:20:30;;;;;;;18.05;16.08;;;;;;;;;;5081719;28;20124;-56
2022/04/30 21:23:31;;;;;;;21.02;15.65;;;;;;;;;;5089350;28;20051;-60
2022/04/30 21:26:17;;;;;;;20.80;16.85;;;;;;;;;;5088741;28;20048;-55
2022/04/30 21:32:28;;;;;;;18.17;15.43;;;;;;;;;;5077810;28;20078;-58
2022/04/30 21:35:05;;;;;;;19.80;17.25;;;;;;;;;;5088064;28;20036;-59
2022/04/30 21:37:54;;;;;;;19.60;15.68;;;;;;;;;;5088989;28;20068;-58
2022/04/30 21:52:44;;;;;;;21.27;16.55;;;;;;;;;;5098158;28;20066;-59
2022/04/30 22:01:41;;;;;;;21.52;16.85;;;;;;;;;;5090908;28;20038;-59
2022/04/30 22:10:23;;;;;;;23.00;19.10;;;;;;;;;;5061772;28;20446;-57
2022/04/30 22:12:52;;;;;;;20.00;17.50;;;;;;;;;;5108790;28;20515;-59
2022/04/30 22:15:24;;;;;;;25.95;19.02;;;;;;;;;;5073179;28;20048;-59
2022/04/30 22:21:15;;;;;;;22.15;18.73;;;;;;;;;;5112168;28;20389;-59
2022/04/30 22:24:05;;;;;;;22.52;19.92;;;;;;;;;;5112788;28;20034;-59
2022/04/30 22:35:40;;;;;;;20.92;18.35;;;;;;;;;;5069785;28;20124;-59
2022/04/30 22:47:00;;;;;;;22.60;18.70;;;;;;;;;;5111708;28;20031;-59
2022/04/30 22:49:48;;;;;;;20.38;18.00;;;;;;;;;;5099186;28;20055;-59
2022/04/30 22:52:40;;;;;;;23.50;18.83;;;;;;;;;;5111019;28;20075;-59
2022/04/30 22:58:24;;;;;;;21.80;17.48;;;;;;;;;;5100387;28;20059;-59
2022/04/30 23:01:14;;;;;;;28.05;19.00;;;;;;;;;;5111080;28;20448;-59
2022/04/30 23:04:12;;;;;;;23.00;19.67;;;;;;;;;;5099304;28;20398;-59
2022/04/30 23:06:58;;;;;;;23.75;18.85;;;;;;;;;;5069191;28;20040;-58
2022/04/30 23:09:27;;;;;;;22.95;17.73;;;;;;;;;;5069354;28;20029;-58
2022/04/30 23:12:15;;;;;;;23.83;20.15;;;;;;;;;;5069625;28;20075;-58
2022/04/30 23:15:10;;;;;;;27.88;19.85;;;;;;;;;;5069454;28;20029;-59
2022/04/30 23:18:20;;;;;;;;;;;;;;;;;;;;;
2022/04/30 23:26:57;;;;;;;19.98;17.42;;;;;;;;;;5009951;28;20571;-57
2022/04/30 23:29:57;;;;;;;;;;;;;;;;;;;;;
2022/04/30 23:33:08;;;;;;;21.88;18.13;;;;;;;;;;5009554;28;20062;-58
2022/04/30 23:39:03;;;;;;;20.90;18.13;;;;;;;;;;5079416;28;20116;-59
2022/04/30 23:41:44;;;;;;;24.67;18.52;;;;;;;;;;5092038;28;20107;-58
2022/04/30 23:47:15;;;;;;;31.02;19.30;;;;;;;;;;5108994;28;20043;-59
2022/04/30 23:49:55;;;;;;;26.42;20.40;;;;;;;;;;5098105;28;20040;-58
2022/04/30 23:52:47;;;;;;;22.30;17.02;;;;;;;;;;5092920;28;20056;-58
2022/04/30 23:58:13;;;;;;;21.95;18.65;;;;;;;;;;5110274;28;20390;-58
